KDRI/DRI METAR and TAF weather

Enter ICAO airport designator
Station Type Date Time Source
KDRI METAR 2021/10/20 07:35 UTC NOAA

KDRI 200735Z AUTO 00000KT 10SM CLR 18/16 A3011 RMK AO2 T01750158


Station Type Date Time Source
KDRI Decoded METAR 2021/10/20 07:35 UTC NOAA

De Ridder, Beauregard Parish Airport, LA, United States (KDRI) 30-49-54N 093-20-23W
Oct 20, 2021 - 03:35 AM EDT / 2021.10.20 0735 UTC
Wind: Calm:0
Visibility: 10 mile(s):0
Sky conditions: clear
Temperature: 63.5 F (17.5 C)
Dew Point: 60.4 F (15.8 C)
Relative Humidity: 89%
Pressure (altimeter): 30.11 in. Hg (1019 hPa)
ob: KDRI 200735Z AUTO 00000KT 10SM CLR 18/16 A3011 RMK AO2 T01750158
cycle: 7

Station Type Date Time Source
KDRI TAF UTC NOAA

Error!

Example: see airport list